sensor_id;sensor_type;location;lat;lon;timestamp;P1;durP1;ratioP1;P2;durP2;ratioP2
27796;SDS011;15177;50.844;4.412;2022-12-18T00:01:44;58.73;;;27.03;;
27796;SDS011;15177;50.844;4.412;2022-12-18T00:04:15;66.07;;;27.67;;
27796;SDS011;15177;50.844;4.412;2022-12-18T00:06:44;56.67;;;25.07;;
27796;SDS011;15177;50.844;4.412;2022-12-18T00:09:10;56.37;;;22.97;;
27796;SDS011;15177;50.844;4.412;2022-12-18T00:11:36;56.57;;;25.00;;
27796;SDS011;15177;50.844;4.412;2022-12-18T00:14:01;57.60;;;24.67;;
27796;SDS011;15177;50.844;4.412;2022-12-18T00:16:27;58.67;;;24.80;;
27796;SDS011;15177;50.844;4.412;2022-12-18T00:18:55;55.67;;;22.43;;
27796;SDS011;15177;50.844;4.412;2022-12-18T00:21:22;55.43;;;23.13;;
27796;SDS011;15177;50.844;4.412;2022-12-18T00:23:48;61.20;;;24.27;;
27796;SDS011;15177;50.844;4.412;2022-12-18T00:26:21;55.43;;;23.67;;
27796;SDS011;15177;50.844;4.412;2022-12-18T00:28:49;52.97;;;20.63;;
27796;SDS011;15177;50.844;4.412;2022-12-18T00:31:17;51.07;;;21.37;;
27796;SDS011;15177;50.844;4.412;2022-12-18T00:33:44;51.80;;;21.70;;
27796;SDS011;15177;50.844;4.412;2022-12-18T00:36:11;44.17;;;20.13;;
27796;SDS011;15177;50.844;4.412;2022-12-18T00:38:39;41.97;;;17.77;;
27796;SDS011;15177;50.844;4.412;2022-12-18T00:41:05;43.00;;;18.20;;
27796;SDS011;15177;50.844;4.412;2022-12-18T00:43:31;39.83;;;18.00;;
27796;SDS011;15177;50.844;4.412;2022-12-18T00:45:58;42.83;;;17.43;;
27796;SDS011;15177;50.844;4.412;2022-12-18T00:48:24;31.77;;;14.47;;
27796;SDS011;15177;50.844;4.412;2022-12-18T00:50:49;31.60;;;15.33;;
27796;SDS011;15177;50.844;4.412;2022-12-18T00:53:15;39.37;;;14.67;;
27796;SDS011;15177;50.844;4.412;2022-12-18T00:55:42;33.17;;;14.07;;
27796;SDS011;15177;50.844;4.412;2022-12-18T00:58:10;34.30;;;13.93;;
27796;SDS011;15177;50.844;4.412;2022-12-18T01:00:36;32.07;;;13.77;;
27796;SDS011;15177;50.844;4.412;2022-12-18T01:03:03;41.07;;;14.47;;
27796;SDS011;15177;50.844;4.412;2022-12-18T01:05:29;32.07;;;13.17;;
27796;SDS011;15177;50.844;4.412;2022-12-18T01:07:55;33.13;;;14.47;;
27796;SDS011;15177;50.844;4.412;2022-12-18T01:10:22;30.87;;;13.47;;
27796;SDS011;15177;50.844;4.412;2022-12-18T01:12:48;34.20;;;13.13;;
27796;SDS011;15177;50.844;4.412;2022-12-18T01:15:14;29.53;;;12.13;;
27796;SDS011;15177;50.844;4.412;2022-12-18T01:17:40;27.73;;;13.30;;
27796;SDS011;15177;50.844;4.412;2022-12-18T01:20:07;24.67;;;11.37;;
27796;SDS011;15177;50.844;4.412;2022-12-18T01:22:34;25.60;;;11.77;;
27796;SDS011;15177;50.844;4.412;2022-12-18T01:25:00;28.63;;;11.27;;
27796;SDS011;15177;50.844;4.412;2022-12-18T01:27:26;29.77;;;12.47;;
27796;SDS011;15177;50.844;4.412;2022-12-18T01:29:52;28.60;;;12.40;;
27796;SDS011;15177;50.844;4.412;2022-12-18T01:32:17;30.70;;;11.90;;
27796;SDS011;15177;50.844;4.412;2022-12-18T01:34:43;29.00;;;13.03;;
27796;SDS011;15177;50.844;4.412;2022-12-18T01:37:09;28.50;;;11.53;;
27796;SDS011;15177;50.844;4.412;2022-12-18T01:39:35;26.20;;;12.00;;
27796;SDS011;15177;50.844;4.412;2022-12-18T01:42:05;27.70;;;11.90;;
27796;SDS011;15177;50.844;4.412;2022-12-18T01:47:25;29.37;;;12.03;;
27796;SDS011;15177;50.844;4.412;2022-12-18T01:55:25;28.23;;;11.87;;
27796;SDS011;15177;50.844;4.412;2022-12-18T01:57:54;28.87;;;11.37;;
27796;SDS011;15177;50.844;4.412;2022-12-18T02:00:22;23.37;;;11.63;;
27796;SDS011;15177;50.844;4.412;2022-12-18T02:02:51;25.70;;;11.87;;
27796;SDS011;15177;50.844;4.412;2022-12-18T02:05:18;27.33;;;11.83;;
27796;SDS011;15177;50.844;4.412;2022-12-18T02:13:20;30.43;;;12.43;;
27796;SDS011;15177;50.844;4.412;2022-12-18T02:18:33;28.43;;;12.07;;
27796;SDS011;15177;50.844;4.412;2022-12-18T02:24:07;34.43;;;13.63;;
27796;SDS011;15177;50.844;4.412;2022-12-18T02:27:02;37.63;;;13.10;;
27796;SDS011;15177;50.844;4.412;2022-12-18T02:29:33;33.40;;;14.27;;
27796;SDS011;15177;50.844;4.412;2022-12-18T02:32:19;35.57;;;13.03;;
27796;SDS011;15177;50.844;4.412;2022-12-18T02:34:49;32.83;;;14.10;;
27796;SDS011;15177;50.844;4.412;2022-12-18T02:37:17;36.30;;;15.00;;
27796;SDS011;15177;50.844;4.412;2022-12-18T02:39:45;36.47;;;14.17;;
27796;SDS011;15177;50.844;4.412;2022-12-18T02:42:13;26.43;;;13.20;;
27796;SDS011;15177;50.844;4.412;2022-12-18T02:44:49;35.67;;;15.67;;
27796;SDS011;15177;50.844;4.412;2022-12-18T02:47:17;31.00;;;13.70;;
27796;SDS011;15177;50.844;4.412;2022-12-18T02:57:56;38.27;;;14.57;;
27796;SDS011;15177;50.844;4.412;2022-12-18T03:00:33;32.47;;;13.93;;
27796;SDS011;15177;50.844;4.412;2022-12-18T03:03:14;42.07;;;14.70;;
27796;SDS011;15177;50.844;4.412;2022-12-18T03:05:53;32.33;;;14.23;;
27796;SDS011;15177;50.844;4.412;2022-12-18T03:08:27;31.53;;;14.17;;
27796;SDS011;15177;50.844;4.412;2022-12-18T03:11:11;31.97;;;14.13;;
27796;SDS011;15177;50.844;4.412;2022-12-18T03:13:43;37.03;;;15.27;;
27796;SDS011;15177;50.844;4.412;2022-12-18T03:16:23;31.53;;;13.43;;
27796;SDS011;15177;50.844;4.412;2022-12-18T03:19:01;26.20;;;11.60;;
27796;SDS011;15177;50.844;4.412;2022-12-18T03:21:37;31.63;;;14.00;;
27796;SDS011;15177;50.844;4.412;2022-12-18T03:24:14;33.70;;;13.07;;
27796;SDS011;15177;50.844;4.412;2022-12-18T03:26:43;34.83;;;12.97;;
27796;SDS011;15177;50.844;4.412;2022-12-18T03:29:19;32.10;;;13.33;;
27796;SDS011;15177;50.844;4.412;2022-12-18T03:32:04;29.40;;;12.67;;
27796;SDS011;15177;50.844;4.412;2022-12-18T03:34:35;34.30;;;11.87;;
27796;SDS011;15177;50.844;4.412;2022-12-18T03:37:03;36.47;;;13.30;;
27796;SDS011;15177;50.844;4.412;2022-12-18T03:39:30;30.10;;;12.90;;
27796;SDS011;15177;50.844;4.412;2022-12-18T03:44:46;25.47;;;11.43;;
27796;SDS011;15177;50.844;4.412;2022-12-18T03:47:27;29.90;;;12.20;;
27796;SDS011;15177;50.844;4.412;2022-12-18T03:50:11;23.30;;;11.30;;
27796;SDS011;15177;50.844;4.412;2022-12-18T03:52:43;27.07;;;11.57;;
27796;SDS011;15177;50.844;4.412;2022-12-18T03:55:15;25.23;;;11.97;;
27796;SDS011;15177;50.844;4.412;2022-12-18T03:57:42;30.37;;;11.93;;
27796;SDS011;15177;50.844;4.412;2022-12-18T04:00:11;24.37;;;10.20;;
27796;SDS011;15177;50.844;4.412;2022-12-18T04:02:41;26.90;;;11.27;;
27796;SDS011;15177;50.844;4.412;2022-12-18T04:05:11;27.20;;;11.77;;
27796;SDS011;15177;50.844;4.412;2022-12-18T04:07:38;21.00;;;10.80;;
27796;SDS011;15177;50.844;4.412;2022-12-18T04:10:07;25.73;;;10.63;;
27796;SDS011;15177;50.844;4.412;2022-12-18T04:12:36;24.70;;;10.53;;
27796;SDS011;15177;50.844;4.412;2022-12-18T04:15:02;25.17;;;10.33;;
27796;SDS011;15177;50.844;4.412;2022-12-18T04:17:29;22.70;;;9.90;;
27796;SDS011;15177;50.844;4.412;2022-12-18T04:19:55;23.80;;;11.27;;
27796;SDS011;15177;50.844;4.412;2022-12-18T04:22:21;21.23;;;10.50;;
27796;SDS011;15177;50.844;4.412;2022-12-18T04:24:47;24.40;;;11.90;;
27796;SDS011;15177;50.844;4.412;2022-12-18T04:27:12;25.23;;;10.87;;
27796;SDS011;15177;50.844;4.412;2022-12-18T04:29:39;24.80;;;11.33;;
27796;SDS011;15177;50.844;4.412;2022-12-18T04:32:07;22.10;;;10.80;;
27796;SDS011;15177;50.844;4.412;2022-12-18T04:34:33;24.33;;;11.20;;
27796;SDS011;15177;50.844;4.412;2022-12-18T04:36:58;26.40;;;9.67;;
27796;SDS011;15177;50.844;4.412;2022-12-18T04:39:24;30.07;;;10.70;;
27796;SDS011;15177;50.844;4.412;2022-12-18T04:41:50;19.37;;;9.73;;
27796;SDS011;15177;50.844;4.412;2022-12-18T04:44:15;26.10;;;10.90;;
27796;SDS011;15177;50.844;4.412;2022-12-18T04:46:42;24.03;;;10.27;;
27796;SDS011;15177;50.844;4.412;2022-12-18T04:49:08;16.13;;;9.17;;
27796;SDS011;15177;50.844;4.412;2022-12-18T04:51:36;23.30;;;11.13;;
27796;SDS011;15177;50.844;4.412;2022-12-18T04:54:02;27.37;;;11.47;;
27796;SDS011;15177;50.844;4.412;2022-12-18T04:56:28;20.10;;;9.83;;
27796;SDS011;15177;50.844;4.412;2022-12-18T04:58:55;21.57;;;9.90;;
27796;SDS011;15177;50.844;4.412;2022-12-18T05:01:21;23.87;;;10.40;;
27796;SDS011;15177;50.844;4.412;2022-12-18T05:03:46;25.57;;;10.57;;
27796;SDS011;15177;50.844;4.412;2022-12-18T05:06:12;20.13;;;9.50;;
27796;SDS011;15177;50.844;4.412;2022-12-18T05:08:38;22.40;;;9.87;;
27796;SDS011;15177;50.844;4.412;2022-12-18T05:11:08;19.07;;;8.60;;
27796;SDS011;15177;50.844;4.412;2022-12-18T05:13:35;22.07;;;9.73;;
27796;SDS011;15177;50.844;4.412;2022-12-18T05:16:03;20.20;;;9.67;;
27796;SDS011;15177;50.844;4.412;2022-12-18T05:18:29;22.23;;;10.07;;
27796;SDS011;15177;50.844;4.412;2022-12-18T05:20:56;27.03;;;10.40;;
27796;SDS011;15177;50.844;4.412;2022-12-18T05:23:23;21.17;;;9.83;;
27796;SDS011;15177;50.844;4.412;2022-12-18T05:26:08;21.93;;;11.03;;
27796;SDS011;15177;50.844;4.412;2022-12-18T05:28:36;20.60;;;10.20;;
27796;SDS011;15177;50.844;4.412;2022-12-18T05:31:03;22.23;;;10.10;;
27796;SDS011;15177;50.844;4.412;2022-12-18T05:33:30;25.67;;;9.57;;
27796;SDS011;15177;50.844;4.412;2022-12-18T05:35:58;20.33;;;9.17;;
27796;SDS011;15177;50.844;4.412;2022-12-18T05:38:31;23.70;;;9.47;;
27796;SDS011;15177;50.844;4.412;2022-12-18T05:41:03;21.47;;;8.97;;
27796;SDS011;15177;50.844;4.412;2022-12-18T05:43:31;23.17;;;9.03;;
27796;SDS011;15177;50.844;4.412;2022-12-18T05:46:04;26.67;;;9.30;;
27796;SDS011;15177;50.844;4.412;2022-12-18T05:48:38;22.80;;;9.97;;
27796;SDS011;15177;50.844;4.412;2022-12-18T05:51:06;22.87;;;9.40;;
27796;SDS011;15177;50.844;4.412;2022-12-18T05:53:34;25.07;;;10.13;;
27796;SDS011;15177;50.844;4.412;2022-12-18T05:56:02;18.83;;;8.27;;
27796;SDS011;15177;50.844;4.412;2022-12-18T05:58:29;18.80;;;8.73;;
27796;SDS011;15177;50.844;4.412;2022-12-18T06:00:56;20.03;;;9.07;;
27796;SDS011;15177;50.844;4.412;2022-12-18T06:03:22;20.33;;;8.57;;
27796;SDS011;15177;50.844;4.412;2022-12-18T06:05:49;18.70;;;8.67;;
27796;SDS011;15177;50.844;4.412;2022-12-18T06:08:15;15.80;;;8.37;;
27796;SDS011;15177;50.844;4.412;2022-12-18T06:10:40;20.03;;;8.87;;
27796;SDS011;15177;50.844;4.412;2022-12-18T06:13:06;20.93;;;9.07;;
27796;SDS011;15177;50.844;4.412;2022-12-18T06:15:33;20.70;;;9.93;;
27796;SDS011;15177;50.844;4.412;2022-12-18T06:18:01;20.80;;;8.80;;
27796;SDS011;15177;50.844;4.412;2022-12-18T06:20:28;21.90;;;8.57;;
27796;SDS011;15177;50.844;4.412;2022-12-18T06:22:54;17.67;;;7.73;;
27796;SDS011;15177;50.844;4.412;2022-12-18T06:25:19;19.27;;;8.17;;
27796;SDS011;15177;50.844;4.412;2022-12-18T06:27:46;17.70;;;8.83;;
27796;SDS011;15177;50.844;4.412;2022-12-18T06:30:12;17.03;;;7.70;;
27796;SDS011;15177;50.844;4.412;2022-12-18T06:32:38;27.80;;;8.97;;
27796;SDS011;15177;50.844;4.412;2022-12-18T06:35:05;13.90;;;7.30;;
27796;SDS011;15177;50.844;4.412;2022-12-18T06:37:31;14.00;;;7.27;;
27796;SDS011;15177;50.844;4.412;2022-12-18T06:39:57;17.50;;;7.40;;
27796;SDS011;15177;50.844;4.412;2022-12-18T06:42:23;15.67;;;6.77;;
27796;SDS011;15177;50.844;4.412;2022-12-18T06:44:49;16.20;;;6.43;;
27796;SDS011;15177;50.844;4.412;2022-12-18T06:47:15;16.23;;;7.23;;
27796;SDS011;15177;50.844;4.412;2022-12-18T06:49:40;14.83;;;6.93;;
27796;SDS011;15177;50.844;4.412;2022-12-18T06:52:06;13.93;;;6.07;;
27796;SDS011;15177;50.844;4.412;2022-12-18T06:54:31;15.23;;;6.37;;
27796;SDS011;15177;50.844;4.412;2022-12-18T06:56:57;17.57;;;8.03;;
27796;SDS011;15177;50.844;4.412;2022-12-18T06:59:23;14.40;;;6.00;;
27796;SDS011;15177;50.844;4.412;2022-12-18T07:01:48;16.07;;;7.27;;
27796;SDS011;15177;50.844;4.412;2022-12-18T07:04:14;14.70;;;6.73;;
27796;SDS011;15177;50.844;4.412;2022-12-18T07:06:40;14.80;;;6.87;;
27796;SDS011;15177;50.844;4.412;2022-12-18T07:09:06;13.70;;;6.73;;
27796;SDS011;15177;50.844;4.412;2022-12-18T07:11:32;16.17;;;7.30;;
27796;SDS011;15177;50.844;4.412;2022-12-18T07:13:58;13.70;;;6.47;;
27796;SDS011;15177;50.844;4.412;2022-12-18T07:16:25;13.10;;;6.03;;
27796;SDS011;15177;50.844;4.412;2022-12-18T07:18:51;17.13;;;6.70;;
27796;SDS011;15177;50.844;4.412;2022-12-18T07:21:18;18.77;;;6.97;;
27796;SDS011;15177;50.844;4.412;2022-12-18T07:23:44;13.13;;;6.23;;
27796;SDS011;15177;50.844;4.412;2022-12-18T07:26:13;11.60;;;6.00;;
27796;SDS011;15177;50.844;4.412;2022-12-18T07:28:40;15.93;;;6.60;;
27796;SDS011;15177;50.844;4.412;2022-12-18T07:31:08;13.77;;;7.23;;
27796;SDS011;15177;50.844;4.412;2022-12-18T07:33:36;16.30;;;7.27;;
27796;SDS011;15177;50.844;4.412;2022-12-18T07:36:03;12.00;;;5.87;;
27796;SDS011;15177;50.844;4.412;2022-12-18T07:38:30;14.40;;;5.97;;
27796;SDS011;15177;50.844;4.412;2022-12-18T07:41:04;14.43;;;6.37;;
27796;SDS011;15177;50.844;4.412;2022-12-18T07:43:31;15.07;;;6.97;;
27796;SDS011;15177;50.844;4.412;2022-12-18T07:45:58;13.60;;;5.93;;
27796;SDS011;15177;50.844;4.412;2022-12-18T07:48:24;13.97;;;6.17;;
27796;SDS011;15177;50.844;4.412;2022-12-18T07:50:50;10.83;;;5.37;;
27796;SDS011;15177;50.844;4.412;2022-12-18T07:53:16;15.87;;;5.90;;
27796;SDS011;15177;50.844;4.412;2022-12-18T07:55:42;10.90;;;5.50;;
27796;SDS011;15177;50.844;4.412;2022-12-18T07:58:08;12.93;;;5.83;;
27796;SDS011;15177;50.844;4.412;2022-12-18T08:00:34;11.40;;;5.90;;
27796;SDS011;15177;50.844;4.412;2022-12-18T08:03:00;14.67;;;6.37;;
27796;SDS011;15177;50.844;4.412;2022-12-18T08:05:27;12.27;;;6.33;;
27796;SDS011;15177;50.844;4.412;2022-12-18T08:07:53;12.90;;;5.47;;
27796;SDS011;15177;50.844;4.412;2022-12-18T08:10:19;11.57;;;5.60;;
27796;SDS011;15177;50.844;4.412;2022-12-18T08:12:48;11.13;;;5.37;;
27796;SDS011;15177;50.844;4.412;2022-12-18T08:15:14;13.80;;;5.93;;
27796;SDS011;15177;50.844;4.412;2022-12-18T08:17:40;12.43;;;5.30;;
27796;SDS011;15177;50.844;4.412;2022-12-18T08:20:07;10.83;;;5.33;;
27796;SDS011;15177;50.844;4.412;2022-12-18T08:22:34;16.03;;;6.43;;
27796;SDS011;15177;50.844;4.412;2022-12-18T08:25:02;11.50;;;4.83;;
27796;SDS011;15177;50.844;4.412;2022-12-18T08:27:28;10.93;;;4.90;;
27796;SDS011;15177;50.844;4.412;2022-12-18T08:29:54;12.23;;;5.10;;
27796;SDS011;15177;50.844;4.412;2022-12-18T08:32:20;15.47;;;6.40;;
27796;SDS011;15177;50.844;4.412;2022-12-18T08:34:45;16.53;;;5.03;;
27796;SDS011;15177;50.844;4.412;2022-12-18T08:37:11;12.87;;;5.80;;
27796;SDS011;15177;50.844;4.412;2022-12-18T08:39:37;15.70;;;6.27;;
27796;SDS011;15177;50.844;4.412;2022-12-18T08:42:03;12.30;;;5.63;;
27796;SDS011;15177;50.844;4.412;2022-12-18T08:44:47;12.73;;;6.13;;
27796;SDS011;15177;50.844;4.412;2022-12-18T08:47:13;12.03;;;6.70;;
27796;SDS011;15177;50.844;4.412;2022-12-18T08:49:38;15.50;;;6.50;;
27796;SDS011;15177;50.844;4.412;2022-12-18T08:52:04;12.10;;;6.33;;
27796;SDS011;15177;50.844;4.412;2022-12-18T08:54:30;15.33;;;6.40;;
27796;SDS011;15177;50.844;4.412;2022-12-18T08:56:55;15.77;;;7.00;;
27796;SDS011;15177;50.844;4.412;2022-12-18T08:59:21;13.00;;;6.40;;
27796;SDS011;15177;50.844;4.412;2022-12-18T09:01:48;16.77;;;6.30;;
27796;SDS011;15177;50.844;4.412;2022-12-18T09:04:14;16.53;;;5.97;;
27796;SDS011;15177;50.844;4.412;2022-12-18T09:06:39;12.00;;;6.40;;
27796;SDS011;15177;50.844;4.412;2022-12-18T09:09:05;14.00;;;7.07;;
27796;SDS011;15177;50.844;4.412;2022-12-18T09:11:32;13.80;;;6.50;;
27796;SDS011;15177;50.844;4.412;2022-12-18T09:13:59;14.17;;;6.47;;
27796;SDS011;15177;50.844;4.412;2022-12-18T09:16:26;14.47;;;7.67;;
27796;SDS011;15177;50.844;4.412;2022-12-18T09:18:52;11.97;;;5.53;;
27796;SDS011;15177;50.844;4.412;2022-12-18T09:21:24;16.30;;;7.10;;
27796;SDS011;15177;50.844;4.412;2022-12-18T09:23:51;14.63;;;7.53;;
27796;SDS011;15177;50.844;4.412;2022-12-18T09:26:18;15.37;;;7.03;;
27796;SDS011;15177;50.844;4.412;2022-12-18T09:28:43;14.00;;;7.20;;
27796;SDS011;15177;50.844;4.412;2022-12-18T09:31:10;12.13;;;6.77;;
27796;SDS011;15177;50.844;4.412;2022-12-18T09:33:37;13.83;;;6.23;;
27796;SDS011;15177;50.844;4.412;2022-12-18T09:36:03;17.13;;;6.97;;
27796;SDS011;15177;50.844;4.412;2022-12-18T09:38:32;16.03;;;6.67;;
27796;SDS011;15177;50.844;4.412;2022-12-18T09:41:00;12.73;;;6.70;;
27796;SDS011;15177;50.844;4.412;2022-12-18T09:43:41;13.17;;;6.47;;
27796;SDS011;15177;50.844;4.412;2022-12-18T09:46:17;17.77;;;8.13;;
27796;SDS011;15177;50.844;4.412;2022-12-18T09:48:50;18.53;;;7.60;;
27796;SDS011;15177;50.844;4.412;2022-12-18T09:51:21;15.50;;;7.27;;
27796;SDS011;15177;50.844;4.412;2022-12-18T09:53:55;16.47;;;7.57;;
27796;SDS011;15177;50.844;4.412;2022-12-18T09:56:26;18.57;;;8.33;;
27796;SDS011;15177;50.844;4.412;2022-12-18T10:01:24;20.13;;;9.60;;
27796;SDS011;15177;50.844;4.412;2022-12-18T10:03:51;17.27;;;8.03;;
27796;SDS011;15177;50.844;4.412;2022-12-18T10:06:21;20.20;;;9.67;;
27796;SDS011;15177;50.844;4.412;2022-12-18T10:09:04;19.07;;;8.53;;
27796;SDS011;15177;50.844;4.412;2022-12-18T10:16:40;22.17;;;9.93;;
27796;SDS011;15177;50.844;4.412;2022-12-18T10:19:18;20.73;;;9.00;;
27796;SDS011;15177;50.844;4.412;2022-12-18T10:27:32;14.97;;;8.13;;
27796;SDS011;15177;50.844;4.412;2022-12-18T10:29:59;21.73;;;10.43;;
27796;SDS011;15177;50.844;4.412;2022-12-18T10:32:30;19.30;;;10.13;;
27796;SDS011;15177;50.844;4.412;2022-12-18T10:34:56;18.67;;;8.73;;
27796;SDS011;15177;50.844;4.412;2022-12-18T10:37:25;20.13;;;8.97;;
27796;SDS011;15177;50.844;4.412;2022-12-18T10:42:37;17.77;;;8.50;;
27796;SDS011;15177;50.844;4.412;2022-12-18T10:45:21;17.73;;;8.60;;
27796;SDS011;15177;50.844;4.412;2022-12-18T10:47:47;19.10;;;9.27;;
27796;SDS011;15177;50.844;4.412;2022-12-18T10:50:19;22.83;;;9.67;;
27796;SDS011;15177;50.844;4.412;2022-12-18T10:52:56;20.83;;;9.63;;
27796;SDS011;15177;50.844;4.412;2022-12-18T10:55:25;17.90;;;9.43;;
27796;SDS011;15177;50.844;4.412;2022-12-18T10:58:12;18.80;;;9.27;;
27796;SDS011;15177;50.844;4.412;2022-12-18T11:01:01;17.83;;;9.83;;
27796;SDS011;15177;50.844;4.412;2022-12-18T11:03:39;24.13;;;10.97;;
27796;SDS011;15177;50.844;4.412;2022-12-18T11:06:14;21.00;;;10.33;;
27796;SDS011;15177;50.844;4.412;2022-12-18T11:08:41;24.97;;;10.77;;
27796;SDS011;15177;50.844;4.412;2022-12-18T11:11:27;22.60;;;11.00;;
27796;SDS011;15177;50.844;4.412;2022-12-18T11:16:25;20.67;;;11.00;;
27796;SDS011;15177;50.844;4.412;2022-12-18T11:18:52;20.20;;;11.13;;
27796;SDS011;15177;50.844;4.412;2022-12-18T11:21:18;18.77;;;10.80;;
27796;SDS011;15177;50.844;4.412;2022-12-18T11:23:50;25.77;;;12.27;;
27796;SDS011;15177;50.844;4.412;2022-12-18T11:26:18;23.47;;;12.00;;
27796;SDS011;15177;50.844;4.412;2022-12-18T11:28:49;20.63;;;11.00;;
27796;SDS011;15177;50.844;4.412;2022-12-18T11:31:21;20.83;;;10.57;;
27796;SDS011;15177;50.844;4.412;2022-12-18T11:33:56;25.37;;;11.47;;
27796;SDS011;15177;50.844;4.412;2022-12-18T11:36:23;24.13;;;11.50;;
27796;SDS011;15177;50.844;4.412;2022-12-18T11:38:53;21.10;;;10.50;;
27796;SDS011;15177;50.844;4.412;2022-12-18T11:41:26;21.20;;;10.73;;
27796;SDS011;15177;50.844;4.412;2022-12-18T11:44:28;22.80;;;12.73;;
27796;SDS011;15177;50.844;4.412;2022-12-18T11:47:00;25.10;;;11.70;;
27796;SDS011;15177;50.844;4.412;2022-12-18T11:49:33;24.27;;;10.57;;
27796;SDS011;15177;50.844;4.412;2022-12-18T11:52:18;20.43;;;11.63;;
27796;SDS011;15177;50.844;4.412;2022-12-18T11:54:45;24.40;;;11.20;;
27796;SDS011;15177;50.844;4.412;2022-12-18T11:57:22;26.20;;;11.63;;
27796;SDS011;15177;50.844;4.412;2022-12-18T12:00:12;22.47;;;11.17;;
27796;SDS011;15177;50.844;4.412;2022-12-18T12:06:09;25.83;;;10.63;;
27796;SDS011;15177;50.844;4.412;2022-12-18T12:08:49;19.63;;;10.87;;
27796;SDS011;15177;50.844;4.412;2022-12-18T12:20:00;21.53;;;9.87;;
27796;SDS011;15177;50.844;4.412;2022-12-18T12:22:41;26.53;;;11.83;;
27796;SDS011;15177;50.844;4.412;2022-12-18T12:25:37;20.97;;;10.77;;
27796;SDS011;15177;50.844;4.412;2022-12-18T12:31:20;23.43;;;10.70;;
27796;SDS011;15177;50.844;4.412;2022-12-18T12:39:31;22.93;;;11.00;;
27796;SDS011;15177;50.844;4.412;2022-12-18T12:42:02;27.93;;;12.40;;
27796;SDS011;15177;50.844;4.412;2022-12-18T12:44:56;23.20;;;10.77;;
27796;SDS011;15177;50.844;4.412;2022-12-18T12:47:27;27.30;;;11.97;;
27796;SDS011;15177;50.844;4.412;2022-12-18T12:50:01;28.23;;;11.33;;
27796;SDS011;15177;50.844;4.412;2022-12-18T12:52:35;32.77;;;11.80;;
27796;SDS011;15177;50.844;4.412;2022-12-18T12:55:07;26.80;;;11.23;;
27796;SDS011;15177;50.844;4.412;2022-12-18T12:57:45;27.27;;;11.53;;
27796;SDS011;15177;50.844;4.412;2022-12-18T13:00:21;25.07;;;11.13;;
27796;SDS011;15177;50.844;4.412;2022-12-18T13:02:58;23.30;;;11.53;;
27796;SDS011;15177;50.844;4.412;2022-12-18T13:05:38;25.27;;;11.47;;
27796;SDS011;15177;50.844;4.412;2022-12-18T13:08:11;26.10;;;11.10;;
27796;SDS011;15177;50.844;4.412;2022-12-18T13:10:47;29.13;;;12.63;;
27796;SDS011;15177;50.844;4.412;2022-12-18T13:13:13;26.60;;;11.93;;
27796;SDS011;15177;50.844;4.412;2022-12-18T13:20:44;24.90;;;11.90;;
27796;SDS011;15177;50.844;4.412;2022-12-18T13:23:26;30.40;;;13.50;;
27796;SDS011;15177;50.844;4.412;2022-12-18T13:31:11;31.67;;;13.87;;
27796;SDS011;15177;50.844;4.412;2022-12-18T13:34:42;34.13;;;13.90;;
27796;SDS011;15177;50.844;4.412;2022-12-18T13:36:45;30.20;;;12.93;;
27796;SDS011;15177;50.844;4.412;2022-12-18T13:41:47;36.30;;;14.67;;
27796;SDS011;15177;50.844;4.412;2022-12-18T13:46:49;29.17;;;12.83;;
27796;SDS011;15177;50.844;4.412;2022-12-18T13:49:26;25.40;;;12.90;;
27796;SDS011;15177;50.844;4.412;2022-12-18T13:51:53;29.70;;;14.20;;
27796;SDS011;15177;50.844;4.412;2022-12-18T13:54:36;34.73;;;14.90;;
27796;SDS011;15177;50.844;4.412;2022-12-18T13:57:05;28.43;;;14.10;;
27796;SDS011;15177;50.844;4.412;2022-12-18T13:59:50;38.03;;;15.17;;
27796;SDS011;15177;50.844;4.412;2022-12-18T14:02:17;33.70;;;15.30;;
27796;SDS011;15177;50.844;4.412;2022-12-18T14:04:46;33.10;;;14.73;;
27796;SDS011;15177;50.844;4.412;2022-12-18T14:07:14;33.50;;;14.83;;
27796;SDS011;15177;50.844;4.412;2022-12-18T14:09:58;33.70;;;14.93;;
27796;SDS011;15177;50.844;4.412;2022-12-18T14:12:32;38.30;;;15.70;;
27796;SDS011;15177;50.844;4.412;2022-12-18T14:20:41;32.20;;;15.77;;
27796;SDS011;15177;50.844;4.412;2022-12-18T14:28:54;32.13;;;15.90;;
27796;SDS011;15177;50.844;4.412;2022-12-18T14:31:26;34.73;;;17.00;;
27796;SDS011;15177;50.844;4.412;2022-12-18T14:33:54;39.23;;;16.23;;
27796;SDS011;15177;50.844;4.412;2022-12-18T14:36:21;40.33;;;15.27;;
27796;SDS011;15177;50.844;4.412;2022-12-18T14:38:58;35.30;;;16.13;;
27796;SDS011;15177;50.844;4.412;2022-12-18T14:41:25;36.53;;;15.67;;
27796;SDS011;15177;50.844;4.412;2022-12-18T14:43:53;39.80;;;16.93;;
27796;SDS011;15177;50.844;4.412;2022-12-18T14:46:41;36.80;;;15.97;;
27796;SDS011;15177;50.844;4.412;2022-12-18T14:52:00;38.10;;;17.30;;
27796;SDS011;15177;50.844;4.412;2022-12-18T14:54:28;40.00;;;18.10;;
27796;SDS011;15177;50.844;4.412;2022-12-18T14:57:03;34.63;;;16.37;;
27796;SDS011;15177;50.844;4.412;2022-12-18T14:59:48;39.83;;;18.00;;
27796;SDS011;15177;50.844;4.412;2022-12-18T15:07:39;39.00;;;17.67;;
27796;SDS011;15177;50.844;4.412;2022-12-18T15:10:10;45.20;;;18.90;;
27796;SDS011;15177;50.844;4.412;2022-12-18T15:20:33;38.67;;;15.97;;
27796;SDS011;15177;50.844;4.412;2022-12-18T15:28:24;39.50;;;17.43;;
27796;SDS011;15177;50.844;4.412;2022-12-18T15:30:59;37.07;;;17.27;;
27796;SDS011;15177;50.844;4.412;2022-12-18T15:33:25;38.27;;;17.53;;
27796;SDS011;15177;50.844;4.412;2022-12-18T15:36:01;34.57;;;15.73;;
27796;SDS011;15177;50.844;4.412;2022-12-18T15:38:34;35.47;;;15.97;;
27796;SDS011;15177;50.844;4.412;2022-12-18T15:41:00;40.93;;;16.37;;
27796;SDS011;15177;50.844;4.412;2022-12-18T15:43:28;40.73;;;17.07;;
27796;SDS011;15177;50.844;4.412;2022-12-18T15:48:39;29.23;;;14.57;;
27796;SDS011;15177;50.844;4.412;2022-12-18T15:51:26;35.67;;;15.67;;
27796;SDS011;15177;50.844;4.412;2022-12-18T15:53:56;38.87;;;16.40;;
27796;SDS011;15177;50.844;4.412;2022-12-18T15:56:26;36.07;;;16.60;;
27796;SDS011;15177;50.844;4.412;2022-12-18T15:59:12;41.07;;;16.67;;
27796;SDS011;15177;50.844;4.412;2022-12-18T16:01:39;45.90;;;18.37;;
27796;SDS011;15177;50.844;4.412;2022-12-18T16:04:06;42.00;;;17.27;;
27796;SDS011;15177;50.844;4.412;2022-12-18T16:06:33;34.77;;;16.57;;
27796;SDS011;15177;50.844;4.412;2022-12-18T16:08:58;34.87;;;15.47;;
27796;SDS011;15177;50.844;4.412;2022-12-18T16:11:28;40.57;;;16.37;;
27796;SDS011;15177;50.844;4.412;2022-12-18T16:14:21;40.97;;;14.60;;
27796;SDS011;15177;50.844;4.412;2022-12-18T16:16:52;38.33;;;15.30;;
27796;SDS011;15177;50.844;4.412;2022-12-18T16:19:20;33.43;;;15.93;;
27796;SDS011;15177;50.844;4.412;2022-12-18T16:21:46;36.60;;;15.30;;
27796;SDS011;15177;50.844;4.412;2022-12-18T16:24:17;42.40;;;15.87;;
27796;SDS011;15177;50.844;4.412;2022-12-18T16:26:44;34.07;;;15.03;;
27796;SDS011;15177;50.844;4.412;2022-12-18T16:29:10;33.43;;;15.43;;
27796;SDS011;15177;50.844;4.412;2022-12-18T16:31:37;43.87;;;16.23;;
27796;SDS011;15177;50.844;4.412;2022-12-18T16:36:59;42.87;;;15.13;;
27796;SDS011;15177;50.844;4.412;2022-12-18T16:39:26;31.47;;;14.07;;
27796;SDS011;15177;50.844;4.412;2022-12-18T16:41:53;32.17;;;15.60;;
27796;SDS011;15177;50.844;4.412;2022-12-18T16:44:19;38.67;;;15.37;;
27796;SDS011;15177;50.844;4.412;2022-12-18T16:46:47;34.80;;;14.90;;